<?xml version="1.0" encoding="UTF-8" standalone="no" ?>
<gpx xmlns="http://www.topografix.com/GPX/1/1" xmlns:xsi="http://www.w3.org/2001/XMLSchema-instance" xsi:schemaLocation="http://www.topografix.com/GPX/1/1 http://www.topografix.com/GPX/1/1/gpx.xsd" version="1.1" creator="VisuGPX - https://www.visugpx.com">
  <metadata>
    <name>Refuge-du-Pinet-Mariano-le-02-09-2013</name>
    <desc><![CDATA[
]]></desc>
  </metadata>
  <wpt lat="42.70922" lon="1.42101">
    <ele>1219</ele>
    <name><![CDATA[Croisement-1219m]]></name>
    <desc><![CDATA[Croisement-1219m































03-SEP-13 14:19:20]]></desc>
    <cmt><![CDATA[Croisement-1219m































03-SEP-13 14:19:20]]></cmt>
  </wpt>
  <wpt lat="42.70666" lon="1.41038">
    <ele>1470</ele>
    <name><![CDATA[Croisement-1470m]]></name>
    <desc><![CDATA[Croisemant-1470m































02-SEP-13 9:47:55]]></desc>
    <cmt><![CDATA[Croisemant-1470m































02-SEP-13 9:47:55]]></cmt>
  </wpt>
  <wpt lat="42.70646" lon="1.40886">
    <ele>1478</ele>
    <name><![CDATA[Croisement-1478m]]></name>
    <desc><![CDATA[Croisement-1478m































02-SEP-13 9:52:09]]></desc>
    <cmt><![CDATA[Croisement-1478m































02-SEP-13 9:52:09]]></cmt>
  </wpt>
  <wpt lat="42.69668" lon="1.40745">
    <ele>1937.2</ele>
    <name><![CDATA[Etang-Sourd-1937m]]></name>
    <desc><![CDATA[Etang-Sourd-1937m]]></desc>
    <cmt><![CDATA[Etang-Sourd-1937m]]></cmt>
  </wpt>
  <wpt lat="42.70234" lon="1.40566">
    <ele>1690</ele>
    <name><![CDATA[orri-de-pla-Nouzère-1690m]]></name>
    <desc><![CDATA[orri-pla-Nouzère-1690m































02-SEP-13 10:18:45]]></desc>
    <cmt><![CDATA[orri-pla-Nouzère-1690m































02-SEP-13 10:18:45]]></cmt>
  </wpt>
  <wpt lat="42.71012" lon="1.42569">
    <ele>1180</ele>
    <name><![CDATA[Parking-depart-1180m)]]></name>
    <desc><![CDATA[Parking depart-1180m)]]></desc>
    <cmt><![CDATA[Parking depart-1180m)]]></cmt>
  </wpt>
  <wpt lat="42.69133" lon="1.3965">
    <ele>2240</ele>
    <name><![CDATA[Refuge-du-Pinet-2240m]]></name>
    <desc><![CDATA[Refuge-du-Pinet-2240m































02-SEP-13 12:20:54]]></desc>
    <cmt><![CDATA[Refuge-du-Pinet-2240m































02-SEP-13 12:20:54]]></cmt>
  </wpt>
  <trk>
    <name><![CDATA[Refuge-du-Pinet-Mariano-le-02-09-2013]]></name>
    <trkseg>
      <trkpt lat="42.7101" lon="1.4258">
        <ele>1170.0617675781</ele>
        <time>2013-09-02T06:57:32Z</time>
      </trkpt>
      <trkpt lat="42.71015" lon="1.42553">
        <ele>1172.4650878906</ele>
        <time>2013-09-02T07:01:09Z</time>
      </trkpt>
      <trkpt lat="42.71033" lon="1.42544">
        <ele>1177.2717285156</ele>
        <time>2013-09-02T07:01:37Z</time>
      </trkpt>
      <trkpt lat="42.71025" lon="1.42522">
        <ele>1181.1171875</ele>
        <time>2013-09-02T07:02:10Z</time>
      </trkpt>
      <trkpt lat="42.71025" lon="1.42507">
        <ele>1184.4816894531</ele>
        <time>2013-09-02T07:02:35Z</time>
      </trkpt>
      <trkpt lat="42.70999" lon="1.42429">
        <ele>1184.9624023438</ele>
        <time>2013-09-02T07:03:58Z</time>
      </trkpt>
      <trkpt lat="42.70974" lon="1.42387">
        <ele>1184.9624023438</ele>
        <time>2013-09-02T07:04:19Z</time>
      </trkpt>
      <trkpt lat="42.70969" lon="1.4237">
        <ele>1186.884765625</ele>
        <time>2013-09-02T07:04:32Z</time>
      </trkpt>
      <trkpt lat="42.70934" lon="1.42116">
        <ele>1197.4594726562</ele>
        <time>2013-09-02T07:08:10Z</time>
      </trkpt>
      <trkpt lat="42.7092" lon="1.42036">
        <ele>1208.9951171875</ele>
        <time>2013-09-02T07:09:31Z</time>
      </trkpt>
      <trkpt lat="42.70924" lon="1.42018">
        <ele>1208.0339355469</ele>
        <time>2013-09-02T07:09:43Z</time>
      </trkpt>
      <trkpt lat="42.7094" lon="1.41883">
        <ele>1210.9177246094</ele>
        <time>2013-09-02T07:11:34Z</time>
      </trkpt>
      <trkpt lat="42.70926" lon="1.41815">
        <ele>1212.3598632812</ele>
        <time>2013-09-02T07:12:39Z</time>
      </trkpt>
      <trkpt lat="42.70921" lon="1.41759">
        <ele>1217.6469726562</ele>
        <time>2013-09-02T07:13:27Z</time>
      </trkpt>
      <trkpt lat="42.70909" lon="1.41654">
        <ele>1227.7407226562</ele>
        <time>2013-09-02T07:15:00Z</time>
      </trkpt>
      <trkpt lat="42.70916" lon="1.41577">
        <ele>1232.5476074219</ele>
        <time>2013-09-02T07:16:02Z</time>
      </trkpt>
      <trkpt lat="42.70901" lon="1.4156">
        <ele>1264.2709960938</ele>
        <time>2013-09-02T07:19:26Z</time>
      </trkpt>
      <trkpt lat="42.70811" lon="1.4158">
        <ele>1280.1328125</ele>
        <time>2013-09-02T07:21:12Z</time>
      </trkpt>
      <trkpt lat="42.70729" lon="1.41685">
        <ele>1328.6794433594</ele>
        <time>2013-09-02T07:26:40Z</time>
      </trkpt>
      <trkpt lat="42.70715" lon="1.41702">
        <ele>1334.447265625</ele>
        <time>2013-09-02T07:27:27Z</time>
      </trkpt>
      <trkpt lat="42.70663" lon="1.4154">
        <ele>1383.4743652344</ele>
        <time>2013-09-02T07:33:20Z</time>
      </trkpt>
      <trkpt lat="42.70675" lon="1.41469">
        <ele>1396.9328613281</ele>
        <time>2013-09-02T07:38:48Z</time>
      </trkpt>
      <trkpt lat="42.70693" lon="1.41171">
        <ele>1416.1591796875</ele>
        <time>2013-09-02T07:43:11Z</time>
      </trkpt>
      <trkpt lat="42.70679" lon="1.41094">
        <ele>1431.5402832031</ele>
        <time>2013-09-02T07:45:39Z</time>
      </trkpt>
      <trkpt lat="42.70667" lon="1.41048">
        <ele>1440.6728515625</ele>
        <time>2013-09-02T07:46:44Z</time>
      </trkpt>
      <trkpt lat="42.7065" lon="1.40938">
        <ele>1469.9931640625</ele>
        <time>2013-09-02T07:50:50Z</time>
      </trkpt>
      <trkpt lat="42.70648" lon="1.40904">
        <ele>1477.68359375</ele>
        <time>2013-09-02T07:52:43Z</time>
      </trkpt>
      <trkpt lat="42.7065" lon="1.4089">
        <ele>1477.68359375</ele>
        <time>2013-09-02T07:53:14Z</time>
      </trkpt>
      <trkpt lat="42.70648" lon="1.40869">
        <ele>1481.5288085938</ele>
        <time>2013-09-02T07:53:44Z</time>
      </trkpt>
      <trkpt lat="42.70644" lon="1.40849">
        <ele>1484.8937988281</ele>
        <time>2013-09-02T07:54:03Z</time>
      </trkpt>
      <trkpt lat="42.70637" lon="1.40817">
        <ele>1489.2194824219</ele>
        <time>2013-09-02T07:54:40Z</time>
      </trkpt>
      <trkpt lat="42.70634" lon="1.40809">
        <ele>1492.103515625</ele>
        <time>2013-09-02T07:55:24Z</time>
      </trkpt>
      <trkpt lat="42.70611" lon="1.40791">
        <ele>1501.716796875</ele>
        <time>2013-09-02T07:56:15Z</time>
      </trkpt>
      <trkpt lat="42.70605" lon="1.40797">
        <ele>1505.5620117188</ele>
        <time>2013-09-02T07:56:50Z</time>
      </trkpt>
      <trkpt lat="42.70563" lon="1.40809">
        <ele>1520.4624023438</ele>
        <time>2013-09-02T07:58:34Z</time>
      </trkpt>
      <trkpt lat="42.70553" lon="1.40736">
        <ele>1535.3627929688</ele>
        <time>2013-09-02T08:00:14Z</time>
      </trkpt>
      <trkpt lat="42.70543" lon="1.40739">
        <ele>1540.6499023438</ele>
        <time>2013-09-02T08:00:43Z</time>
      </trkpt>
      <trkpt lat="42.70522" lon="1.4068">
        <ele>1562.2795410156</ele>
        <time>2013-09-02T08:02:58Z</time>
      </trkpt>
      <trkpt lat="42.70519" lon="1.4066">
        <ele>1564.6831054688</ele>
        <time>2013-09-02T08:03:29Z</time>
      </trkpt>
      <trkpt lat="42.70493" lon="1.40666">
        <ele>1578.1413574219</ele>
        <time>2013-09-02T08:04:50Z</time>
      </trkpt>
      <trkpt lat="42.70492" lon="1.40655">
        <ele>1584.3901367188</ele>
        <time>2013-09-02T08:05:49Z</time>
      </trkpt>
      <trkpt lat="42.70473" lon="1.40653">
        <ele>1589.1965332031</ele>
        <time>2013-09-02T08:06:23Z</time>
      </trkpt>
      <trkpt lat="42.70429" lon="1.4066">
        <ele>1614.1909179688</ele>
        <time>2013-09-02T08:09:05Z</time>
      </trkpt>
      <trkpt lat="42.70424" lon="1.40641">
        <ele>1617.0749511719</ele>
        <time>2013-09-02T08:09:38Z</time>
      </trkpt>
      <trkpt lat="42.70409" lon="1.4064">
        <ele>1623.3234863281</ele>
        <time>2013-09-02T08:10:22Z</time>
      </trkpt>
      <trkpt lat="42.70391" lon="1.40611">
        <ele>1634.3786621094</ele>
        <time>2013-09-02T08:12:33Z</time>
      </trkpt>
      <trkpt lat="42.70313" lon="1.40583">
        <ele>1662.2568359375</ele>
        <time>2013-09-02T08:15:46Z</time>
      </trkpt>
      <trkpt lat="42.70234" lon="1.40566">
        <ele>1680.5219726562</ele>
        <time>2013-09-02T08:18:42Z</time>
      </trkpt>
      <trkpt lat="42.7022" lon="1.40556">
        <ele>1686.2897949219</ele>
        <time>2013-09-02T08:19:10Z</time>
      </trkpt>
      <trkpt lat="42.70186" lon="1.40555">
        <ele>1687.7316894531</ele>
        <time>2013-09-02T08:20:06Z</time>
      </trkpt>
      <trkpt lat="42.7011" lon="1.40475">
        <ele>1720.8972167969</ele>
        <time>2013-09-02T08:24:56Z</time>
      </trkpt>
      <trkpt lat="42.69977" lon="1.40306">
        <ele>1768.9631347656</ele>
        <time>2013-09-02T08:31:45Z</time>
      </trkpt>
      <trkpt lat="42.69943" lon="1.40219">
        <ele>1785.7861328125</ele>
        <time>2013-09-02T08:34:22Z</time>
      </trkpt>
      <trkpt lat="42.6993" lon="1.40201">
        <ele>1790.5927734375</ele>
        <time>2013-09-02T08:35:00Z</time>
      </trkpt>
      <trkpt lat="42.69861" lon="1.40171">
        <ele>1804.5319824219</ele>
        <time>2013-09-02T08:37:49Z</time>
      </trkpt>
      <trkpt lat="42.69848" lon="1.40179">
        <ele>1808.3771972656</ele>
        <time>2013-09-02T08:38:16Z</time>
      </trkpt>
      <trkpt lat="42.69818" lon="1.4018">
        <ele>1819.9128417969</ele>
        <time>2013-09-02T08:39:43Z</time>
      </trkpt>
      <trkpt lat="42.69781" lon="1.40114">
        <ele>1828.0842285156</ele>
        <time>2013-09-02T08:41:26Z</time>
      </trkpt>
      <trkpt lat="42.69775" lon="1.40069">
        <ele>1835.7746582031</ele>
        <time>2013-09-02T08:42:25Z</time>
      </trkpt>
      <trkpt lat="42.69693" lon="1.40008">
        <ele>1862.2109375</ele>
        <time>2013-09-02T08:45:54Z</time>
      </trkpt>
      <trkpt lat="42.69688" lon="1.39985">
        <ele>1866.0561523438</ele>
        <time>2013-09-02T08:46:39Z</time>
      </trkpt>
      <trkpt lat="42.69698" lon="1.39951">
        <ele>1878.5534667969</ele>
        <time>2013-09-02T08:48:04Z</time>
      </trkpt>
      <trkpt lat="42.69683" lon="1.39872">
        <ele>1905.9509277344</ele>
        <time>2013-09-02T08:51:44Z</time>
      </trkpt>
      <trkpt lat="42.69704" lon="1.39778">
        <ele>1926.138671875</ele>
        <time>2013-09-02T08:55:08Z</time>
      </trkpt>
      <trkpt lat="42.69699" lon="1.39732">
        <ele>1933.8293457031</ele>
        <time>2013-09-02T08:56:30Z</time>
      </trkpt>
      <trkpt lat="42.6969" lon="1.39714">
        <ele>1935.2712402344</ele>
        <time>2013-09-02T08:57:01Z</time>
      </trkpt>
      <trkpt lat="42.69667" lon="1.39698">
        <ele>1948.2490234375</ele>
        <time>2013-09-02T08:58:16Z</time>
      </trkpt>
      <trkpt lat="42.69656" lon="1.39698">
        <ele>1956.4201660156</ele>
        <time>2013-09-02T08:59:01Z</time>
      </trkpt>
      <trkpt lat="42.69637" lon="1.39671">
        <ele>1971.8012695312</ele>
        <time>2013-09-02T09:00:42Z</time>
      </trkpt>
      <trkpt lat="42.69627" lon="1.39669">
        <ele>1979.4916992188</ele>
        <time>2013-09-02T09:01:49Z</time>
      </trkpt>
      <trkpt lat="42.69569" lon="1.3963">
        <ele>1998.2375488281</ele>
        <time>2013-09-02T09:04:51Z</time>
      </trkpt>
      <trkpt lat="42.69561" lon="1.39618">
        <ele>2004.966796875</ele>
        <time>2013-09-02T09:05:38Z</time>
      </trkpt>
      <trkpt lat="42.69548" lon="1.39616">
        <ele>2012.1767578125</ele>
        <time>2013-09-02T09:06:29Z</time>
      </trkpt>
      <trkpt lat="42.69537" lon="1.39604">
        <ele>2017.4638671875</ele>
        <time>2013-09-02T09:07:12Z</time>
      </trkpt>
      <trkpt lat="42.69525" lon="1.39603">
        <ele>2025.6350097656</ele>
        <time>2013-09-02T09:08:00Z</time>
      </trkpt>
      <trkpt lat="42.69512" lon="1.39601">
        <ele>2033.3256835938</ele>
        <time>2013-09-02T09:09:04Z</time>
      </trkpt>
      <trkpt lat="42.69506" lon="1.39617">
        <ele>2038.6130371094</ele>
        <time>2013-09-02T09:09:52Z</time>
      </trkpt>
      <trkpt lat="42.69473" lon="1.39613">
        <ele>2052.5520019531</ele>
        <time>2013-09-02T09:11:24Z</time>
      </trkpt>
      <trkpt lat="42.69463" lon="1.39595">
        <ele>2058.3198242188</ele>
        <time>2013-09-02T09:12:11Z</time>
      </trkpt>
      <trkpt lat="42.6945" lon="1.3959">
        <ele>2066.4912109375</ele>
        <time>2013-09-02T09:13:00Z</time>
      </trkpt>
      <trkpt lat="42.69438" lon="1.39586">
        <ele>2069.8557128906</ele>
        <time>2013-09-02T09:13:56Z</time>
      </trkpt>
      <trkpt lat="42.69428" lon="1.39599">
        <ele>2073.7009277344</ele>
        <time>2013-09-02T09:14:35Z</time>
      </trkpt>
      <trkpt lat="42.69379" lon="1.39628">
        <ele>2093.408203125</ele>
        <time>2013-09-02T09:17:01Z</time>
      </trkpt>
      <trkpt lat="42.69363" lon="1.39628">
        <ele>2098.6953125</ele>
        <time>2013-09-02T09:17:45Z</time>
      </trkpt>
      <trkpt lat="42.69352" lon="1.39644">
        <ele>2104.9438476562</ele>
        <time>2013-09-02T09:18:27Z</time>
      </trkpt>
      <trkpt lat="42.69326" lon="1.39627">
        <ele>2118.8830566406</ele>
        <time>2013-09-02T09:20:23Z</time>
      </trkpt>
      <trkpt lat="42.69315" lon="1.39637">
        <ele>2126.5737304688</ele>
        <time>2013-09-02T09:21:07Z</time>
      </trkpt>
      <trkpt lat="42.69308" lon="1.39621">
        <ele>2132.3415527344</ele>
        <time>2013-09-02T09:21:49Z</time>
      </trkpt>
      <trkpt lat="42.69305" lon="1.39635">
        <ele>2139.5512695312</ele>
        <time>2013-09-02T09:22:33Z</time>
      </trkpt>
      <trkpt lat="42.69295" lon="1.39626">
        <ele>2144.3579101562</ele>
        <time>2013-09-02T09:23:15Z</time>
      </trkpt>
      <trkpt lat="42.69292" lon="1.39605">
        <ele>2152.5290527344</ele>
        <time>2013-09-02T09:23:57Z</time>
      </trkpt>
      <trkpt lat="42.69289" lon="1.39597">
        <ele>2156.8552246094</ele>
        <time>2013-09-02T09:25:18Z</time>
      </trkpt>
      <trkpt lat="42.69276" lon="1.39594">
        <ele>2164.0649414062</ele>
        <time>2013-09-02T09:25:56Z</time>
      </trkpt>
      <trkpt lat="42.69237" lon="1.39574">
        <ele>2180.4074707031</ele>
        <time>2013-09-02T09:27:58Z</time>
      </trkpt>
      <trkpt lat="42.69219" lon="1.39555">
        <ele>2190.5012207031</ele>
        <time>2013-09-02T09:29:12Z</time>
      </trkpt>
      <trkpt lat="42.69212" lon="1.39562">
        <ele>2196.2692871094</ele>
        <time>2013-09-02T09:29:52Z</time>
      </trkpt>
      <trkpt lat="42.69197" lon="1.39566">
        <ele>2198.1916503906</ele>
        <time>2013-09-02T09:30:34Z</time>
      </trkpt>
      <trkpt lat="42.69184" lon="1.3956">
        <ele>2203.4790039062</ele>
        <time>2013-09-02T09:31:12Z</time>
      </trkpt>
      <trkpt lat="42.69152" lon="1.39567">
        <ele>2213.5727539062</ele>
        <time>2013-09-02T09:32:35Z</time>
      </trkpt>
      <trkpt lat="42.69138" lon="1.39578">
        <ele>2216.9375</ele>
        <time>2013-09-02T09:33:11Z</time>
      </trkpt>
      <trkpt lat="42.6911" lon="1.39565">
        <ele>2217.41796875</ele>
        <time>2013-09-02T09:34:01Z</time>
      </trkpt>
      <trkpt lat="42.69098" lon="1.39553">
        <ele>2219.8212890625</ele>
        <time>2013-09-02T09:34:16Z</time>
      </trkpt>
      <trkpt lat="42.69077" lon="1.39567">
        <ele>2218.8601074219</ele>
        <time>2013-09-02T09:35:46Z</time>
      </trkpt>
      <trkpt lat="42.69071" lon="1.39584">
        <ele>2219.3408203125</ele>
        <time>2013-09-02T09:36:10Z</time>
      </trkpt>
      <trkpt lat="42.69062" lon="1.39606">
        <ele>2219.3408203125</ele>
        <time>2013-09-02T09:36:32Z</time>
      </trkpt>
      <trkpt lat="42.6906" lon="1.39625">
        <ele>2217.41796875</ele>
        <time>2013-09-02T09:37:00Z</time>
      </trkpt>
      <trkpt lat="42.69059" lon="1.39644">
        <ele>2218.8601074219</ele>
        <time>2013-09-02T09:37:25Z</time>
      </trkpt>
      <trkpt lat="42.69069" lon="1.3966">
        <ele>2218.3793945312</ele>
        <time>2013-09-02T09:37:52Z</time>
      </trkpt>
      <trkpt lat="42.69105" lon="1.39682">
        <ele>2222.7055664062</ele>
        <time>2013-09-02T09:38:43Z</time>
      </trkpt>
      <trkpt lat="42.69123" lon="1.39679">
        <ele>2225.1086425781</ele>
        <time>2013-09-02T09:39:06Z</time>
      </trkpt>
      <trkpt lat="42.69117" lon="1.3966">
        <ele>2227.0314941406</ele>
        <time>2013-09-02T09:39:29Z</time>
      </trkpt>
      <trkpt lat="42.69128" lon="1.39644">
        <ele>2227.9926757812</ele>
        <time>2013-09-02T09:39:45Z</time>
      </trkpt>
      <trkpt lat="42.69131" lon="1.39631">
        <ele>2241.9318847656</ele>
        <time>2013-09-02T10:54:01Z</time>
      </trkpt>
      <trkpt lat="42.69136" lon="1.39624">
        <ele>2237.1252441406</ele>
        <time>2013-09-02T10:55:02Z</time>
      </trkpt>
      <trkpt lat="42.69127" lon="1.39573">
        <ele>2235.2023925781</ele>
        <time>2013-09-03T09:33:36Z</time>
      </trkpt>
      <trkpt lat="42.69138" lon="1.39619">
        <ele>2238.0866699219</ele>
        <time>2013-09-03T09:34:00Z</time>
      </trkpt>
      <trkpt lat="42.69134" lon="1.39637">
        <ele>2244.8156738281</ele>
        <time>2013-09-03T09:34:16Z</time>
      </trkpt>
      <trkpt lat="42.69116" lon="1.39669">
        <ele>2246.73828125</ele>
        <time>2013-09-03T09:36:07Z</time>
      </trkpt>
      <trkpt lat="42.69135" lon="1.39698">
        <ele>2233.7604980469</ele>
        <time>2013-09-03T10:44:03Z</time>
      </trkpt>
      <trkpt lat="42.69141" lon="1.39725">
        <ele>2238.5673828125</ele>
        <time>2013-09-03T10:44:29Z</time>
      </trkpt>
      <trkpt lat="42.69141" lon="1.39745">
        <ele>2236.1640625</ele>
        <time>2013-09-03T10:44:57Z</time>
      </trkpt>
      <trkpt lat="42.69137" lon="1.39766">
        <ele>2230.3959960938</ele>
        <time>2013-09-03T10:45:19Z</time>
      </trkpt>
      <trkpt lat="42.6913" lon="1.39787">
        <ele>2228.4733886719</ele>
        <time>2013-09-03T10:45:44Z</time>
      </trkpt>
      <trkpt lat="42.69129" lon="1.39812">
        <ele>2224.6281738281</ele>
        <time>2013-09-03T10:46:13Z</time>
      </trkpt>
      <trkpt lat="42.69136" lon="1.39829">
        <ele>2219.3408203125</ele>
        <time>2013-09-03T10:46:37Z</time>
      </trkpt>
      <trkpt lat="42.69145" lon="1.39856">
        <ele>2212.6115722656</ele>
        <time>2013-09-03T10:47:05Z</time>
      </trkpt>
      <trkpt lat="42.69143" lon="1.39993">
        <ele>2194.8271484375</ele>
        <time>2013-09-03T10:49:09Z</time>
      </trkpt>
      <trkpt lat="42.6916" lon="1.40037">
        <ele>2171.2746582031</ele>
        <time>2013-09-03T10:50:46Z</time>
      </trkpt>
      <trkpt lat="42.6919" lon="1.40118">
        <ele>2152.0483398438</ele>
        <time>2013-09-03T10:52:28Z</time>
      </trkpt>
      <trkpt lat="42.69225" lon="1.40195">
        <ele>2128.4963378906</ele>
        <time>2013-09-03T10:54:14Z</time>
      </trkpt>
      <trkpt lat="42.69242" lon="1.40205">
        <ele>2117.9216308594</ele>
        <time>2013-09-03T10:55:01Z</time>
      </trkpt>
      <trkpt lat="42.69282" lon="1.40253">
        <ele>2107.3471679688</ele>
        <time>2013-09-03T10:56:04Z</time>
      </trkpt>
      <trkpt lat="42.69273" lon="1.40274">
        <ele>2103.0212402344</ele>
        <time>2013-09-03T10:56:20Z</time>
      </trkpt>
      <trkpt lat="42.69287" lon="1.40277">
        <ele>2097.2534179688</ele>
        <time>2013-09-03T10:56:45Z</time>
      </trkpt>
      <trkpt lat="42.69298" lon="1.40277">
        <ele>2090.5239257812</ele>
        <time>2013-09-03T10:57:07Z</time>
      </trkpt>
      <trkpt lat="42.6931" lon="1.40289">
        <ele>2083.794921875</ele>
        <time>2013-09-03T10:57:32Z</time>
      </trkpt>
      <trkpt lat="42.69315" lon="1.40316">
        <ele>2078.98828125</ele>
        <time>2013-09-03T10:57:51Z</time>
      </trkpt>
      <trkpt lat="42.69327" lon="1.40383">
        <ele>2064.5686035156</ele>
        <time>2013-09-03T10:58:52Z</time>
      </trkpt>
      <trkpt lat="42.69347" lon="1.4042">
        <ele>2058.3198242188</ele>
        <time>2013-09-03T10:59:32Z</time>
      </trkpt>
      <trkpt lat="42.69369" lon="1.40446">
        <ele>2049.1875</ele>
        <time>2013-09-03T11:00:16Z</time>
      </trkpt>
      <trkpt lat="42.69398" lon="1.40488">
        <ele>2050.1489257812</ele>
        <time>2013-09-03T11:00:57Z</time>
      </trkpt>
      <trkpt lat="42.69476" lon="1.4053">
        <ele>2035.7290039062</ele>
        <time>2013-09-03T11:02:47Z</time>
      </trkpt>
      <trkpt lat="42.69488" lon="1.40538">
        <ele>2029.48046875</ele>
        <time>2013-09-03T11:03:08Z</time>
      </trkpt>
      <trkpt lat="42.69501" lon="1.40538">
        <ele>2025.154296875</ele>
        <time>2013-09-03T11:03:24Z</time>
      </trkpt>
      <trkpt lat="42.69555" lon="1.40553">
        <ele>2000.1604003906</ele>
        <time>2013-09-03T11:05:02Z</time>
      </trkpt>
      <trkpt lat="42.69567" lon="1.40538">
        <ele>1996.7956542969</ele>
        <time>2013-09-03T11:05:45Z</time>
      </trkpt>
      <trkpt lat="42.69607" lon="1.40537">
        <ele>1971.8012695312</ele>
        <time>2013-09-03T11:07:40Z</time>
      </trkpt>
      <trkpt lat="42.69646" lon="1.40567">
        <ele>1957.8623046875</ele>
        <time>2013-09-03T11:08:53Z</time>
      </trkpt>
      <trkpt lat="42.69628" lon="1.4061">
        <ele>1952.0942382812</ele>
        <time>2013-09-03T11:09:43Z</time>
      </trkpt>
      <trkpt lat="42.69633" lon="1.40657">
        <ele>1952.5749511719</ele>
        <time>2013-09-03T11:10:36Z</time>
      </trkpt>
      <trkpt lat="42.69663" lon="1.40685">
        <ele>1951.6137695312</ele>
        <time>2013-09-03T11:12:10Z</time>
      </trkpt>
      <trkpt lat="42.69692" lon="1.40738">
        <ele>1956.4201660156</ele>
        <time>2013-09-03T11:12:57Z</time>
      </trkpt>
      <trkpt lat="42.69711" lon="1.40797">
        <ele>1953.0556640625</ele>
        <time>2013-09-03T11:13:47Z</time>
      </trkpt>
      <trkpt lat="42.69778" lon="1.40812">
        <ele>1929.9838867188</ele>
        <time>2013-09-03T11:15:34Z</time>
      </trkpt>
      <trkpt lat="42.69826" lon="1.40781">
        <ele>1909.3156738281</ele>
        <time>2013-09-03T11:16:57Z</time>
      </trkpt>
      <trkpt lat="42.69876" lon="1.40769">
        <ele>1885.7634277344</ele>
        <time>2013-09-03T11:19:15Z</time>
      </trkpt>
      <trkpt lat="42.70032" lon="1.40666">
        <ele>1826.6423339844</ele>
        <time>2013-09-03T11:25:07Z</time>
      </trkpt>
      <trkpt lat="42.70026" lon="1.40597">
        <ele>1802.1284179688</ele>
        <time>2013-09-03T11:26:37Z</time>
      </trkpt>
      <trkpt lat="42.70044" lon="1.40597">
        <ele>1795.8801269531</ele>
        <time>2013-09-03T11:26:58Z</time>
      </trkpt>
      <trkpt lat="42.70123" lon="1.40661">
        <ele>1765.1179199219</ele>
        <time>2013-09-03T11:32:41Z</time>
      </trkpt>
      <trkpt lat="42.70136" lon="1.40651">
        <ele>1757.4274902344</ele>
        <time>2013-09-03T11:33:14Z</time>
      </trkpt>
      <trkpt lat="42.70182" lon="1.40658">
        <ele>1735.7976074219</ele>
        <time>2013-09-03T11:34:53Z</time>
      </trkpt>
      <trkpt lat="42.70212" lon="1.40651">
        <ele>1725.2231445312</ele>
        <time>2013-09-03T11:35:33Z</time>
      </trkpt>
      <trkpt lat="42.70229" lon="1.40623">
        <ele>1716.0905761719</ele>
        <time>2013-09-03T11:36:14Z</time>
      </trkpt>
      <trkpt lat="42.70235" lon="1.40576">
        <ele>1705.5161132812</ele>
        <time>2013-09-03T11:37:08Z</time>
      </trkpt>
      <trkpt lat="42.7024" lon="1.40557">
        <ele>1699.7482910156</ele>
        <time>2013-09-03T11:37:52Z</time>
      </trkpt>
      <trkpt lat="42.70316" lon="1.40581">
        <ele>1679.560546875</ele>
        <time>2013-09-03T11:39:15Z</time>
      </trkpt>
      <trkpt lat="42.70388" lon="1.40613">
        <ele>1658.4113769531</ele>
        <time>2013-09-03T11:40:46Z</time>
      </trkpt>
      <trkpt lat="42.70401" lon="1.40626">
        <ele>1651.6823730469</ele>
        <time>2013-09-03T11:41:12Z</time>
      </trkpt>
      <trkpt lat="42.70411" lon="1.4064">
        <ele>1645.4338378906</ele>
        <time>2013-09-03T11:41:31Z</time>
      </trkpt>
      <trkpt lat="42.70425" lon="1.40642">
        <ele>1636.3012695312</ele>
        <time>2013-09-03T11:41:56Z</time>
      </trkpt>
      <trkpt lat="42.70434" lon="1.40658">
        <ele>1631.0141601562</ele>
        <time>2013-09-03T11:42:21Z</time>
      </trkpt>
      <trkpt lat="42.70475" lon="1.40648">
        <ele>1609.8647460938</ele>
        <time>2013-09-03T11:43:48Z</time>
      </trkpt>
      <trkpt lat="42.70488" lon="1.4065">
        <ele>1602.6550292969</ele>
        <time>2013-09-03T11:44:14Z</time>
      </trkpt>
      <trkpt lat="42.70497" lon="1.40662">
        <ele>1598.3291015625</ele>
        <time>2013-09-03T11:44:34Z</time>
      </trkpt>
      <trkpt lat="42.7051" lon="1.40661">
        <ele>1588.2353515625</ele>
        <time>2013-09-03T11:45:08Z</time>
      </trkpt>
      <trkpt lat="42.70521" lon="1.40668">
        <ele>1582.9479980469</ele>
        <time>2013-09-03T11:45:30Z</time>
      </trkpt>
      <trkpt lat="42.70542" lon="1.40725">
        <ele>1565.64453125</ele>
        <time>2013-09-03T11:46:48Z</time>
      </trkpt>
      <trkpt lat="42.70557" lon="1.40728">
        <ele>1556.0310058594</ele>
        <time>2013-09-03T11:47:29Z</time>
      </trkpt>
      <trkpt lat="42.70575" lon="1.40804">
        <ele>1539.2080078125</ele>
        <time>2013-09-03T11:48:48Z</time>
      </trkpt>
      <trkpt lat="42.70588" lon="1.4081">
        <ele>1532.4790039062</ele>
        <time>2013-09-03T11:49:12Z</time>
      </trkpt>
      <trkpt lat="42.70594" lon="1.40792">
        <ele>1527.1916503906</ele>
        <time>2013-09-03T11:49:37Z</time>
      </trkpt>
      <trkpt lat="42.70616" lon="1.40784">
        <ele>1522.8657226562</ele>
        <time>2013-09-03T11:50:04Z</time>
      </trkpt>
      <trkpt lat="42.70639" lon="1.40808">
        <ele>1511.810546875</ele>
        <time>2013-09-03T11:50:53Z</time>
      </trkpt>
      <trkpt lat="42.70647" lon="1.40825">
        <ele>1508.4458007812</ele>
        <time>2013-09-03T11:51:15Z</time>
      </trkpt>
      <trkpt lat="42.70651" lon="1.40843">
        <ele>1506.0424804688</ele>
        <time>2013-09-03T11:51:32Z</time>
      </trkpt>
      <trkpt lat="42.70652" lon="1.40888">
        <ele>1497.8713378906</ele>
        <time>2013-09-03T11:52:54Z</time>
      </trkpt>
      <trkpt lat="42.70651" lon="1.40909">
        <ele>1493.5454101562</ele>
        <time>2013-09-03T11:53:15Z</time>
      </trkpt>
      <trkpt lat="42.70653" lon="1.40935">
        <ele>1488.7390136719</ele>
        <time>2013-09-03T11:53:45Z</time>
      </trkpt>
      <trkpt lat="42.70655" lon="1.40971">
        <ele>1484.4130859375</ele>
        <time>2013-09-03T11:54:12Z</time>
      </trkpt>
      <trkpt lat="42.70658" lon="1.41003">
        <ele>1481.0483398438</ele>
        <time>2013-09-03T11:54:37Z</time>
      </trkpt>
      <trkpt lat="42.70698" lon="1.41185">
        <ele>1435.8662109375</ele>
        <time>2013-09-03T11:58:07Z</time>
      </trkpt>
      <trkpt lat="42.70676" lon="1.41477">
        <ele>1414.7172851562</ele>
        <time>2013-09-03T12:01:11Z</time>
      </trkpt>
      <trkpt lat="42.70662" lon="1.41533">
        <ele>1407.98828125</ele>
        <time>2013-09-03T12:02:32Z</time>
      </trkpt>
      <trkpt lat="42.70669" lon="1.4156">
        <ele>1398.3747558594</ele>
        <time>2013-09-03T12:03:04Z</time>
      </trkpt>
      <trkpt lat="42.70706" lon="1.41674">
        <ele>1371.4577636719</ele>
        <time>2013-09-03T12:05:40Z</time>
      </trkpt>
      <trkpt lat="42.70719" lon="1.41716">
        <ele>1360.8835449219</ele>
        <time>2013-09-03T12:06:14Z</time>
      </trkpt>
      <trkpt lat="42.7074" lon="1.41657">
        <ele>1341.1765136719</ele>
        <time>2013-09-03T12:07:24Z</time>
      </trkpt>
      <trkpt lat="42.70773" lon="1.41619">
        <ele>1325.3146972656</ele>
        <time>2013-09-03T12:08:34Z</time>
      </trkpt>
      <trkpt lat="42.70797" lon="1.41603">
        <ele>1307.0495605469</ele>
        <time>2013-09-03T12:09:34Z</time>
      </trkpt>
      <trkpt lat="42.70821" lon="1.41575">
        <ele>1294.5524902344</ele>
        <time>2013-09-03T12:10:20Z</time>
      </trkpt>
      <trkpt lat="42.70895" lon="1.41548">
        <ele>1258.0224609375</ele>
        <time>2013-09-03T12:12:49Z</time>
      </trkpt>
      <trkpt lat="42.70917" lon="1.4159">
        <ele>1252.7351074219</ele>
        <time>2013-09-03T12:13:16Z</time>
      </trkpt>
      <trkpt lat="42.70905" lon="1.41616">
        <ele>1249.8513183594</ele>
        <time>2013-09-03T12:13:35Z</time>
      </trkpt>
      <trkpt lat="42.709" lon="1.41638">
        <ele>1248.8898925781</ele>
        <time>2013-09-03T12:13:50Z</time>
      </trkpt>
      <trkpt lat="42.70921" lon="1.41769">
        <ele>1234.4702148438</ele>
        <time>2013-09-03T12:15:28Z</time>
      </trkpt>
      <trkpt lat="42.70938" lon="1.41878">
        <ele>1225.8181152344</ele>
        <time>2013-09-03T12:16:54Z</time>
      </trkpt>
      <trkpt lat="42.70938" lon="1.41927">
        <ele>1230.625</ele>
        <time>2013-09-03T12:17:28Z</time>
      </trkpt>
      <trkpt lat="42.7092" lon="1.42019">
        <ele>1220.5310058594</ele>
        <time>2013-09-03T12:18:27Z</time>
      </trkpt>
      <trkpt lat="42.70927" lon="1.42103">
        <ele>1214.7631835938</ele>
        <time>2013-09-03T12:19:41Z</time>
      </trkpt>
      <trkpt lat="42.70932" lon="1.42125">
        <ele>1209.4758300781</ele>
        <time>2013-09-03T12:20:01Z</time>
      </trkpt>
      <trkpt lat="42.70963" lon="1.42299">
        <ele>1201.7854003906</ele>
        <time>2013-09-03T12:21:51Z</time>
      </trkpt>
      <trkpt lat="42.70975" lon="1.4238">
        <ele>1200.3435058594</ele>
        <time>2013-09-03T12:22:43Z</time>
      </trkpt>
      <trkpt lat="42.71025" lon="1.425">
        <ele>1199.8627929688</ele>
        <time>2013-09-03T12:24:26Z</time>
      </trkpt>
      <trkpt lat="42.71035" lon="1.42521">
        <ele>1198.9013671875</ele>
        <time>2013-09-03T12:24:41Z</time>
      </trkpt>
      <trkpt lat="42.71046" lon="1.42534">
        <ele>1196.9787597656</ele>
        <time>2013-09-03T12:24:52Z</time>
      </trkpt>
      <trkpt lat="42.7105" lon="1.42553">
        <ele>1196.017578125</ele>
        <time>2013-09-03T12:25:04Z</time>
      </trkpt>
      <trkpt lat="42.71046" lon="1.42571">
        <ele>1195.0559082031</ele>
        <time>2013-09-03T12:25:14Z</time>
      </trkpt>
      <trkpt lat="42.71059" lon="1.42593">
        <ele>1194.0947265625</ele>
        <time>2013-09-03T12:25:28Z</time>
      </trkpt>
      <trkpt lat="42.71047" lon="1.42586">
        <ele>1192.1721191406</ele>
        <time>2013-09-03T12:25:46Z</time>
      </trkpt>
      <trkpt lat="42.7103" lon="1.42558">
        <ele>1188.8076171875</ele>
        <time>2013-09-03T12:25:57Z</time>
      </trkpt>
      <trkpt lat="42.71009" lon="1.42576">
        <ele>1184.9624023438</ele>
        <time>2013-09-03T12:26:30Z</time>
      </trkpt>
    </trkseg>
  </trk>
</gpx>